sensor_id;sensor_type;location;lat;lon;timestamp;P1;durP1;ratioP1;P2;durP2;ratioP2
7017;SDS011;3549;42.162;24.726;2023-05-29T00:01:44;13.10;;;6.70;;
7017;SDS011;3549;42.162;24.726;2023-05-29T00:04:09;15.47;;;6.77;;
7017;SDS011;3549;42.162;24.726;2023-05-29T00:06:37;12.27;;;6.43;;
7017;SDS011;3549;42.162;24.726;2023-05-29T00:09:02;13.43;;;5.93;;
7017;SDS011;3549;42.162;24.726;2023-05-29T00:11:29;12.23;;;6.47;;
7017;SDS011;3549;42.162;24.726;2023-05-29T00:13:55;11.50;;;6.10;;
7017;SDS011;3549;42.162;24.726;2023-05-29T00:16:21;12.47;;;6.50;;
7017;SDS011;3549;42.162;24.726;2023-05-29T00:18:48;11.97;;;6.30;;
7017;SDS011;3549;42.162;24.726;2023-05-29T00:21:14;12.13;;;6.17;;
7017;SDS011;3549;42.162;24.726;2023-05-29T00:23:40;12.93;;;6.23;;
7017;SDS011;3549;42.162;24.726;2023-05-29T00:26:06;10.10;;;5.80;;
7017;SDS011;3549;42.162;24.726;2023-05-29T00:28:32;13.27;;;6.33;;
7017;SDS011;3549;42.162;24.726;2023-05-29T00:30:57;17.37;;;6.50;;
7017;SDS011;3549;42.162;24.726;2023-05-29T00:33:22;9.77;;;6.10;;
7017;SDS011;3549;42.162;24.726;2023-05-29T00:35:48;12.47;;;6.80;;
7017;SDS011;3549;42.162;24.726;2023-05-29T00:38:13;13.20;;;6.87;;
7017;SDS011;3549;42.162;24.726;2023-05-29T00:40:42;20.17;;;7.63;;
7017;SDS011;3549;42.162;24.726;2023-05-29T00:43:07;13.97;;;8.00;;
7017;SDS011;3549;42.162;24.726;2023-05-29T00:45:32;13.97;;;8.60;;
7017;SDS011;3549;42.162;24.726;2023-05-29T00:48:01;18.57;;;8.77;;
7017;SDS011;3549;42.162;24.726;2023-05-29T00:50:28;15.17;;;8.93;;
7017;SDS011;3549;42.162;24.726;2023-05-29T00:52:54;15.93;;;9.00;;
7017;SDS011;3549;42.162;24.726;2023-05-29T00:55:19;16.20;;;8.70;;
7017;SDS011;3549;42.162;24.726;2023-05-29T00:57:45;17.60;;;9.30;;
7017;SDS011;3549;42.162;24.726;2023-05-29T01:00:11;16.60;;;9.80;;
7017;SDS011;3549;42.162;24.726;2023-05-29T01:02:39;17.37;;;9.70;;
7017;SDS011;3549;42.162;24.726;2023-05-29T01:05:09;18.93;;;9.60;;
7017;SDS011;3549;42.162;24.726;2023-05-29T01:07:36;17.43;;;9.90;;
7017;SDS011;3549;42.162;24.726;2023-05-29T01:10:02;13.10;;;9.00;;
7017;SDS011;3549;42.162;24.726;2023-05-29T01:12:33;17.07;;;9.40;;
7017;SDS011;3549;42.162;24.726;2023-05-29T01:28:18;14.83;;;8.07;;
7017;SDS011;3549;42.162;24.726;2023-05-29T01:30:47;17.67;;;8.30;;
7017;SDS011;3549;42.162;24.726;2023-05-29T01:33:14;14.70;;;7.37;;
7017;SDS011;3549;42.162;24.726;2023-05-29T01:35:39;15.27;;;8.30;;
7017;SDS011;3549;42.162;24.726;2023-05-29T01:38:05;13.20;;;7.63;;
7017;SDS011;3549;42.162;24.726;2023-05-29T01:40:30;13.23;;;7.17;;
7017;SDS011;3549;42.162;24.726;2023-05-29T01:42:56;15.17;;;7.70;;
7017;SDS011;3549;42.162;24.726;2023-05-29T01:45:21;18.30;;;7.90;;
7017;SDS011;3549;42.162;24.726;2023-05-29T01:47:47;12.80;;;7.47;;
7017;SDS011;3549;42.162;24.726;2023-05-29T01:50:14;13.80;;;7.33;;
7017;SDS011;3549;42.162;24.726;2023-05-29T01:52:43;12.10;;;7.63;;
7017;SDS011;3549;42.162;24.726;2023-05-29T01:55:08;12.43;;;7.63;;
7017;SDS011;3549;42.162;24.726;2023-05-29T01:57:33;16.20;;;7.73;;
7017;SDS011;3549;42.162;24.726;2023-05-29T02:00:02;12.33;;;7.40;;
7017;SDS011;3549;42.162;24.726;2023-05-29T02:02:35;13.40;;;7.87;;
7017;SDS011;3549;42.162;24.726;2023-05-29T02:05:02;13.83;;;7.57;;
7017;SDS011;3549;42.162;24.726;2023-05-29T02:07:28;13.80;;;7.60;;
7017;SDS011;3549;42.162;24.726;2023-05-29T02:09:53;15.03;;;7.80;;
7017;SDS011;3549;42.162;24.726;2023-05-29T02:12:18;16.27;;;8.17;;
7017;SDS011;3549;42.162;24.726;2023-05-29T02:14:44;13.77;;;7.13;;
7017;SDS011;3549;42.162;24.726;2023-05-29T02:17:09;13.03;;;7.63;;
7017;SDS011;3549;42.162;24.726;2023-05-29T02:19:35;16.83;;;8.27;;
7017;SDS011;3549;42.162;24.726;2023-05-29T02:22:01;13.20;;;7.13;;
7017;SDS011;3549;42.162;24.726;2023-05-29T02:24:27;13.83;;;7.00;;
7017;SDS011;3549;42.162;24.726;2023-05-29T02:26:52;11.90;;;7.57;;
7017;SDS011;3549;42.162;24.726;2023-05-29T02:29:18;11.97;;;7.03;;
7017;SDS011;3549;42.162;24.726;2023-05-29T02:31:43;14.27;;;7.30;;
7017;SDS011;3549;42.162;24.726;2023-05-29T02:34:09;16.07;;;7.33;;
7017;SDS011;3549;42.162;24.726;2023-05-29T02:36:34;12.77;;;7.10;;
7017;SDS011;3549;42.162;24.726;2023-05-29T02:39:02;12.43;;;6.90;;
7017;SDS011;3549;42.162;24.726;2023-05-29T02:41:29;12.23;;;6.83;;
7017;SDS011;3549;42.162;24.726;2023-05-29T02:43:54;11.60;;;6.53;;
7017;SDS011;3549;42.162;24.726;2023-05-29T02:46:20;11.70;;;6.40;;
7017;SDS011;3549;42.162;24.726;2023-05-29T02:48:46;14.73;;;6.90;;
7017;SDS011;3549;42.162;24.726;2023-05-29T02:51:12;11.97;;;6.30;;
7017;SDS011;3549;42.162;24.726;2023-05-29T02:53:37;12.37;;;6.90;;
7017;SDS011;3549;42.162;24.726;2023-05-29T02:56:03;10.27;;;6.30;;
7017;SDS011;3549;42.162;24.726;2023-05-29T02:58:29;15.60;;;6.70;;
7017;SDS011;3549;42.162;24.726;2023-05-29T03:00:54;9.60;;;6.33;;
7017;SDS011;3549;42.162;24.726;2023-05-29T03:03:20;14.20;;;6.87;;
7017;SDS011;3549;42.162;24.726;2023-05-29T03:05:45;11.90;;;6.30;;
7017;SDS011;3549;42.162;24.726;2023-05-29T03:08:11;9.67;;;6.37;;
7017;SDS011;3549;42.162;24.726;2023-05-29T03:10:38;11.37;;;6.07;;
7017;SDS011;3549;42.162;24.726;2023-05-29T03:13:03;10.80;;;6.07;;
7017;SDS011;3549;42.162;24.726;2023-05-29T03:15:28;11.40;;;6.37;;
7017;SDS011;3549;42.162;24.726;2023-05-29T03:17:54;12.30;;;6.20;;
7017;SDS011;3549;42.162;24.726;2023-05-29T03:20:19;10.83;;;5.70;;
7017;SDS011;3549;42.162;24.726;2023-05-29T03:22:45;11.83;;;6.30;;
7017;SDS011;3549;42.162;24.726;2023-05-29T03:25:10;12.33;;;6.27;;
7017;SDS011;3549;42.162;24.726;2023-05-29T03:27:36;12.00;;;6.10;;
7017;SDS011;3549;42.162;24.726;2023-05-29T03:30:02;9.50;;;6.03;;
7017;SDS011;3549;42.162;24.726;2023-05-29T03:32:28;11.50;;;6.37;;
7017;SDS011;3549;42.162;24.726;2023-05-29T03:34:53;11.97;;;6.50;;
7017;SDS011;3549;42.162;24.726;2023-05-29T03:37:18;14.30;;;6.73;;
7017;SDS011;3549;42.162;24.726;2023-05-29T03:39:44;13.33;;;6.27;;
7017;SDS011;3549;42.162;24.726;2023-05-29T03:42:09;13.27;;;7.03;;
7017;SDS011;3549;42.162;24.726;2023-05-29T03:44:35;13.23;;;6.40;;
7017;SDS011;3549;42.162;24.726;2023-05-29T03:47:00;14.70;;;6.63;;
7017;SDS011;3549;42.162;24.726;2023-05-29T03:49:25;14.07;;;6.83;;
7017;SDS011;3549;42.162;24.726;2023-05-29T03:51:51;11.00;;;6.70;;
7017;SDS011;3549;42.162;24.726;2023-05-29T03:54:16;10.33;;;6.73;;
7017;SDS011;3549;42.162;24.726;2023-05-29T03:56:42;14.67;;;7.00;;
7017;SDS011;3549;42.162;24.726;2023-05-29T03:59:07;11.50;;;6.90;;
7017;SDS011;3549;42.162;24.726;2023-05-29T04:01:33;9.87;;;6.83;;
7017;SDS011;3549;42.162;24.726;2023-05-29T04:04:08;14.07;;;7.17;;
7017;SDS011;3549;42.162;24.726;2023-05-29T04:06:33;13.37;;;7.03;;
7017;SDS011;3549;42.162;24.726;2023-05-29T04:09:03;11.40;;;6.97;;
7017;SDS011;3549;42.162;24.726;2023-05-29T04:11:34;11.93;;;6.60;;
7017;SDS011;3549;42.162;24.726;2023-05-29T04:14:00;11.67;;;6.80;;
7017;SDS011;3549;42.162;24.726;2023-05-29T04:16:27;16.23;;;6.13;;
7017;SDS011;3549;42.162;24.726;2023-05-29T04:18:53;11.70;;;6.70;;
7017;SDS011;3549;42.162;24.726;2023-05-29T04:21:18;11.37;;;6.70;;
7017;SDS011;3549;42.162;24.726;2023-05-29T04:23:44;11.90;;;7.03;;
7017;SDS011;3549;42.162;24.726;2023-05-29T04:26:09;11.13;;;6.57;;
7017;SDS011;3549;42.162;24.726;2023-05-29T04:28:35;11.40;;;6.77;;
7017;SDS011;3549;42.162;24.726;2023-05-29T04:31:02;12.03;;;6.57;;
7017;SDS011;3549;42.162;24.726;2023-05-29T04:33:27;13.50;;;6.70;;
7017;SDS011;3549;42.162;24.726;2023-05-29T04:35:54;12.37;;;7.20;;
7017;SDS011;3549;42.162;24.726;2023-05-29T04:38:20;15.50;;;7.83;;
7017;SDS011;3549;42.162;24.726;2023-05-29T04:40:50;12.37;;;6.83;;
7017;SDS011;3549;42.162;24.726;2023-05-29T04:43:16;12.00;;;6.90;;
7017;SDS011;3549;42.162;24.726;2023-05-29T04:45:41;13.23;;;6.90;;
7017;SDS011;3549;42.162;24.726;2023-05-29T04:48:07;10.07;;;6.57;;
7017;SDS011;3549;42.162;24.726;2023-05-29T04:50:33;14.53;;;6.97;;
7017;SDS011;3549;42.162;24.726;2023-05-29T04:53:00;14.17;;;7.10;;
7017;SDS011;3549;42.162;24.726;2023-05-29T04:55:25;12.70;;;6.70;;
7017;SDS011;3549;42.162;24.726;2023-05-29T04:57:51;11.77;;;6.50;;
7017;SDS011;3549;42.162;24.726;2023-05-29T05:00:18;11.83;;;6.73;;
7017;SDS011;3549;42.162;24.726;2023-05-29T05:02:44;10.67;;;7.10;;
7017;SDS011;3549;42.162;24.726;2023-05-29T05:05:10;12.37;;;6.77;;
7017;SDS011;3549;42.162;24.726;2023-05-29T05:07:35;11.53;;;7.23;;
7017;SDS011;3549;42.162;24.726;2023-05-29T05:10:02;10.60;;;7.60;;
7017;SDS011;3549;42.162;24.726;2023-05-29T05:12:28;13.80;;;8.23;;
7017;SDS011;3549;42.162;24.726;2023-05-29T05:14:53;15.50;;;9.30;;
7017;SDS011;3549;42.162;24.726;2023-05-29T05:17:19;19.93;;;10.03;;
7017;SDS011;3549;42.162;24.726;2023-05-29T05:19:45;13.80;;;7.60;;
7017;SDS011;3549;42.162;24.726;2023-05-29T05:22:10;9.53;;;6.43;;
7017;SDS011;3549;42.162;24.726;2023-05-29T05:24:36;10.57;;;6.83;;
7017;SDS011;3549;42.162;24.726;2023-05-29T05:27:01;11.40;;;6.67;;
7017;SDS011;3549;42.162;24.726;2023-05-29T05:29:27;12.93;;;7.60;;
7017;SDS011;3549;42.162;24.726;2023-05-29T05:31:52;12.30;;;6.93;;
7017;SDS011;3549;42.162;24.726;2023-05-29T05:34:17;12.13;;;7.07;;
7017;SDS011;3549;42.162;24.726;2023-05-29T05:36:43;12.80;;;7.57;;
7017;SDS011;3549;42.162;24.726;2023-05-29T05:39:08;14.57;;;7.50;;
7017;SDS011;3549;42.162;24.726;2023-05-29T05:41:34;11.00;;;7.33;;
7017;SDS011;3549;42.162;24.726;2023-05-29T05:43:59;13.23;;;7.07;;
7017;SDS011;3549;42.162;24.726;2023-05-29T05:46:25;13.33;;;8.30;;
7017;SDS011;3549;42.162;24.726;2023-05-29T05:48:50;20.13;;;12.83;;
7017;SDS011;3549;42.162;24.726;2023-05-29T05:51:16;16.33;;;11.33;;
7017;SDS011;3549;42.162;24.726;2023-05-29T05:53:42;12.00;;;7.37;;
7017;SDS011;3549;42.162;24.726;2023-05-29T05:56:07;12.93;;;7.77;;
7017;SDS011;3549;42.162;24.726;2023-05-29T05:58:33;10.97;;;7.20;;
7017;SDS011;3549;42.162;24.726;2023-05-29T06:00:58;12.57;;;8.30;;
7017;SDS011;3549;42.162;24.726;2023-05-29T06:03:25;12.37;;;7.70;;
7017;SDS011;3549;42.162;24.726;2023-05-29T06:05:51;10.97;;;7.07;;
7017;SDS011;3549;42.162;24.726;2023-05-29T06:08:17;12.53;;;8.03;;
7017;SDS011;3549;42.162;24.726;2023-05-29T06:10:43;10.43;;;7.03;;
7017;SDS011;3549;42.162;24.726;2023-05-29T06:13:08;11.80;;;6.60;;
7017;SDS011;3549;42.162;24.726;2023-05-29T06:15:34;11.67;;;7.00;;
7017;SDS011;3549;42.162;24.726;2023-05-29T06:18:00;13.23;;;7.83;;
7017;SDS011;3549;42.162;24.726;2023-05-29T06:20:26;24.70;;;12.37;;
7017;SDS011;3549;42.162;24.726;2023-05-29T06:22:51;22.53;;;13.53;;
7017;SDS011;3549;42.162;24.726;2023-05-29T06:25:17;16.97;;;9.50;;
7017;SDS011;3549;42.162;24.726;2023-05-29T06:27:44;14.67;;;8.23;;
7017;SDS011;3549;42.162;24.726;2023-05-29T06:30:10;11.40;;;7.00;;
7017;SDS011;3549;42.162;24.726;2023-05-29T06:32:36;12.50;;;7.30;;
7017;SDS011;3549;42.162;24.726;2023-05-29T06:35:02;10.57;;;6.60;;
7017;SDS011;3549;42.162;24.726;2023-05-29T06:37:27;10.87;;;6.50;;
7017;SDS011;3549;42.162;24.726;2023-05-29T06:39:52;12.33;;;6.80;;
7017;SDS011;3549;42.162;24.726;2023-05-29T06:42:18;9.60;;;6.53;;
7017;SDS011;3549;42.162;24.726;2023-05-29T06:44:43;9.17;;;6.60;;
7017;SDS011;3549;42.162;24.726;2023-05-29T06:47:09;9.07;;;6.23;;
7017;SDS011;3549;42.162;24.726;2023-05-29T06:49:34;11.10;;;6.33;;
7017;SDS011;3549;42.162;24.726;2023-05-29T06:51:59;9.93;;;6.37;;
7017;SDS011;3549;42.162;24.726;2023-05-29T06:54:25;10.30;;;5.80;;
7017;SDS011;3549;42.162;24.726;2023-05-29T06:56:50;9.53;;;6.00;;
7017;SDS011;3549;42.162;24.726;2023-05-29T06:59:16;8.93;;;6.07;;
7017;SDS011;3549;42.162;24.726;2023-05-29T07:01:41;9.20;;;6.20;;
7017;SDS011;3549;42.162;24.726;2023-05-29T07:04:07;7.50;;;5.60;;
7017;SDS011;3549;42.162;24.726;2023-05-29T07:06:32;8.33;;;5.90;;
7017;SDS011;3549;42.162;24.726;2023-05-29T07:08:58;8.33;;;5.67;;
7017;SDS011;3549;42.162;24.726;2023-05-29T07:11:24;7.50;;;5.50;;
7017;SDS011;3549;42.162;24.726;2023-05-29T07:13:51;9.10;;;5.23;;
7017;SDS011;3549;42.162;24.726;2023-05-29T07:16:18;8.70;;;5.40;;
7017;SDS011;3549;42.162;24.726;2023-05-29T07:18:43;10.47;;;5.90;;
7017;SDS011;3549;42.162;24.726;2023-05-29T07:21:09;8.87;;;5.87;;
7017;SDS011;3549;42.162;24.726;2023-05-29T07:23:35;8.23;;;5.30;;
7017;SDS011;3549;42.162;24.726;2023-05-29T07:26:01;9.93;;;5.70;;
7017;SDS011;3549;42.162;24.726;2023-05-29T07:28:26;8.60;;;5.43;;
7017;SDS011;3549;42.162;24.726;2023-05-29T07:30:52;9.57;;;5.50;;
7017;SDS011;3549;42.162;24.726;2023-05-29T07:33:17;6.93;;;5.13;;
7017;SDS011;3549;42.162;24.726;2023-05-29T07:35:42;12.13;;;5.80;;
7017;SDS011;3549;42.162;24.726;2023-05-29T07:38:08;10.93;;;5.70;;
7017;SDS011;3549;42.162;24.726;2023-05-29T07:40:33;7.97;;;5.57;;
7017;SDS011;3549;42.162;24.726;2023-05-29T07:42:59;10.43;;;6.10;;
7017;SDS011;3549;42.162;24.726;2023-05-29T07:45:24;11.57;;;6.30;;
7017;SDS011;3549;42.162;24.726;2023-05-29T07:47:50;12.90;;;6.17;;
7017;SDS011;3549;42.162;24.726;2023-05-29T07:50:17;10.53;;;6.17;;
7017;SDS011;3549;42.162;24.726;2023-05-29T07:52:42;12.80;;;6.20;;
7017;SDS011;3549;42.162;24.726;2023-05-29T07:55:09;10.80;;;6.30;;
7017;SDS011;3549;42.162;24.726;2023-05-29T07:57:34;8.30;;;6.10;;
7017;SDS011;3549;42.162;24.726;2023-05-29T08:00:00;13.43;;;6.53;;
7017;SDS011;3549;42.162;24.726;2023-05-29T08:02:27;8.93;;;6.30;;
7017;SDS011;3549;42.162;24.726;2023-05-29T08:04:53;11.17;;;6.37;;
7017;SDS011;3549;42.162;24.726;2023-05-29T08:07:18;11.67;;;6.37;;
7017;SDS011;3549;42.162;24.726;2023-05-29T08:09:43;8.83;;;6.33;;
7017;SDS011;3549;42.162;24.726;2023-05-29T08:12:09;8.77;;;6.07;;
7017;SDS011;3549;42.162;24.726;2023-05-29T08:14:34;9.47;;;5.73;;
7017;SDS011;3549;42.162;24.726;2023-05-29T08:17:00;11.30;;;5.97;;
7017;SDS011;3549;42.162;24.726;2023-05-29T08:19:25;10.50;;;5.60;;
7017;SDS011;3549;42.162;24.726;2023-05-29T08:21:51;13.07;;;6.27;;
7017;SDS011;3549;42.162;24.726;2023-05-29T08:24:17;8.27;;;5.67;;
7017;SDS011;3549;42.162;24.726;2023-05-29T08:26:42;14.00;;;5.90;;
7017;SDS011;3549;42.162;24.726;2023-05-29T08:29:08;13.90;;;6.47;;
7017;SDS011;3549;42.162;24.726;2023-05-29T08:31:34;9.03;;;5.63;;
7017;SDS011;3549;42.162;24.726;2023-05-29T08:33:59;10.70;;;5.70;;
7017;SDS011;3549;42.162;24.726;2023-05-29T08:36:25;9.30;;;6.27;;
7017;SDS011;3549;42.162;24.726;2023-05-29T08:38:50;11.13;;;6.50;;
7017;SDS011;3549;42.162;24.726;2023-05-29T08:41:30;9.97;;;5.83;;
7017;SDS011;3549;42.162;24.726;2023-05-29T08:44:08;10.20;;;6.30;;
7017;SDS011;3549;42.162;24.726;2023-05-29T08:46:39;8.73;;;6.30;;
7017;SDS011;3549;42.162;24.726;2023-05-29T08:49:05;10.60;;;5.97;;
7017;SDS011;3549;42.162;24.726;2023-05-29T08:51:36;10.70;;;6.17;;
7017;SDS011;3549;42.162;24.726;2023-05-29T08:54:03;9.57;;;5.70;;
7017;SDS011;3549;42.162;24.726;2023-05-29T08:56:29;8.17;;;6.10;;
7017;SDS011;3549;42.162;24.726;2023-05-29T08:58:54;8.63;;;5.73;;
7017;SDS011;3549;42.162;24.726;2023-05-29T09:01:22;8.30;;;5.43;;
7017;SDS011;3549;42.162;24.726;2023-05-29T09:03:48;7.30;;;4.97;;
7017;SDS011;3549;42.162;24.726;2023-05-29T09:06:13;8.13;;;5.43;;
7017;SDS011;3549;42.162;24.726;2023-05-29T09:08:39;8.47;;;5.67;;
7017;SDS011;3549;42.162;24.726;2023-05-29T09:11:04;11.83;;;5.93;;
7017;SDS011;3549;42.162;24.726;2023-05-29T09:13:30;8.63;;;5.83;;
7017;SDS011;3549;42.162;24.726;2023-05-29T09:15:57;8.80;;;5.90;;
7017;SDS011;3549;42.162;24.726;2023-05-29T09:18:31;6.90;;;5.20;;
7017;SDS011;3549;42.162;24.726;2023-05-29T09:20:56;10.10;;;5.80;;
7017;SDS011;3549;42.162;24.726;2023-05-29T09:23:31;9.77;;;5.73;;
7017;SDS011;3549;42.162;24.726;2023-05-29T09:25:56;8.20;;;5.43;;
7017;SDS011;3549;42.162;24.726;2023-05-29T09:28:22;8.83;;;5.67;;
7017;SDS011;3549;42.162;24.726;2023-05-29T09:30:48;9.73;;;5.60;;
7017;SDS011;3549;42.162;24.726;2023-05-29T09:33:14;8.53;;;5.50;;
7017;SDS011;3549;42.162;24.726;2023-05-29T09:35:42;9.00;;;5.50;;
7017;SDS011;3549;42.162;24.726;2023-05-29T09:38:17;9.17;;;5.67;;
7017;SDS011;3549;42.162;24.726;2023-05-29T09:40:44;9.00;;;5.60;;
7017;SDS011;3549;42.162;24.726;2023-05-29T09:43:17;6.83;;;5.33;;
7017;SDS011;3549;42.162;24.726;2023-05-29T09:45:46;10.30;;;6.00;;
7017;SDS011;3549;42.162;24.726;2023-05-29T09:48:22;7.67;;;5.47;;
7017;SDS011;3549;42.162;24.726;2023-05-29T09:50:49;8.27;;;5.50;;
7017;SDS011;3549;42.162;24.726;2023-05-29T09:53:18;7.23;;;5.40;;
7017;SDS011;3549;42.162;24.726;2023-05-29T09:55:45;8.23;;;5.37;;
7017;SDS011;3549;42.162;24.726;2023-05-29T09:58:15;6.77;;;5.03;;
7017;SDS011;3549;42.162;24.726;2023-05-29T10:00:44;8.00;;;5.00;;
7017;SDS011;3549;42.162;24.726;2023-05-29T10:03:10;7.77;;;5.30;;
7017;SDS011;3549;42.162;24.726;2023-05-29T10:05:38;7.07;;;5.30;;
7017;SDS011;3549;42.162;24.726;2023-05-29T10:08:05;8.70;;;5.10;;
7017;SDS011;3549;42.162;24.726;2023-05-29T10:10:34;7.80;;;5.10;;
7017;SDS011;3549;42.162;24.726;2023-05-29T10:13:03;7.07;;;5.35;;
7017;SDS011;3549;42.162;24.726;2023-05-29T10:15:31;9.80;;;5.47;;
7017;SDS011;3549;42.162;24.726;2023-05-29T10:18:04;7.68;;;5.15;;
7017;SDS011;3549;42.162;24.726;2023-05-29T10:20:37;7.97;;;5.28;;
7017;SDS011;3549;42.162;24.726;2023-05-29T10:23:04;14.70;;;5.25;;
7017;SDS011;3549;42.162;24.726;2023-05-29T10:25:30;7.68;;;5.28;;
7017;SDS011;3549;42.162;24.726;2023-05-29T10:27:58;7.93;;;5.90;;
7017;SDS011;3549;42.162;24.726;2023-05-29T10:30:36;7.20;;;5.55;;
7017;SDS011;3549;42.162;24.726;2023-05-29T10:38:30;6.40;;;5.07;;
7017;SDS011;3549;42.162;24.726;2023-05-29T10:40:56;7.40;;;5.68;;
7017;SDS011;3549;42.162;24.726;2023-05-29T10:43:57;8.48;;;5.45;;
7017;SDS011;3549;42.162;24.726;2023-05-29T10:49:18;7.93;;;5.60;;
7017;SDS011;3549;42.162;24.726;2023-05-29T10:51:44;7.03;;;4.90;;
7017;SDS011;3549;42.162;24.726;2023-05-29T10:54:10;9.48;;;5.38;;
7017;SDS011;3549;42.162;24.726;2023-05-29T10:56:36;7.40;;;5.15;;
7017;SDS011;3549;42.162;24.726;2023-05-29T10:59:02;8.45;;;5.45;;
7017;SDS011;3549;42.162;24.726;2023-05-29T11:01:30;6.97;;;5.25;;
7017;SDS011;3549;42.162;24.726;2023-05-29T11:06:45;28.20;;;17.35;;
7017;SDS011;3549;42.162;24.726;2023-05-29T11:14:44;8.68;;;5.15;;
7017;SDS011;3549;42.162;24.726;2023-05-29T11:17:28;7.82;;;4.93;;
7017;SDS011;3549;42.162;24.726;2023-05-29T11:25:33;8.38;;;4.70;;
7017;SDS011;3549;42.162;24.726;2023-05-29T11:28:05;6.68;;;4.75;;
7017;SDS011;3549;42.162;24.726;2023-05-29T11:30:42;10.32;;;5.20;;
7017;SDS011;3549;42.162;24.726;2023-05-29T11:33:08;7.75;;;4.68;;
7017;SDS011;3549;42.162;24.726;2023-05-29T11:35:44;8.93;;;5.20;;
7017;SDS011;3549;42.162;24.726;2023-05-29T11:38:11;6.72;;;5.20;;
7017;SDS011;3549;42.162;24.726;2023-05-29T11:40:36;5.95;;;5.00;;
7017;SDS011;3549;42.162;24.726;2023-05-29T11:43:03;9.40;;;5.18;;
7017;SDS011;3549;42.162;24.726;2023-05-29T11:45:31;7.60;;;4.40;;
7017;SDS011;3549;42.162;24.726;2023-05-29T11:47:59;5.97;;;4.53;;
7017;SDS011;3549;42.162;24.726;2023-05-29T11:50:27;6.95;;;4.63;;
7017;SDS011;3549;42.162;24.726;2023-05-29T11:52:54;6.28;;;5.00;;
7017;SDS011;3549;42.162;24.726;2023-05-29T11:55:21;9.80;;;6.43;;
7017;SDS011;3549;42.162;24.726;2023-05-29T11:57:47;7.60;;;4.95;;
7017;SDS011;3549;42.162;24.726;2023-05-29T12:00:15;6.47;;;4.75;;
7017;SDS011;3549;42.162;24.726;2023-05-29T12:02:42;5.88;;;4.93;;
7017;SDS011;3549;42.162;24.726;2023-05-29T12:05:13;8.23;;;5.10;;
7017;SDS011;3549;42.162;24.726;2023-05-29T12:07:50;10.48;;;5.03;;
7017;SDS011;3549;42.162;24.726;2023-05-29T12:10:18;5.95;;;4.18;;
7017;SDS011;3549;42.162;24.726;2023-05-29T12:12:49;6.45;;;3.90;;
7017;SDS011;3549;42.162;24.726;2023-05-29T12:15:16;7.53;;;4.20;;
7017;SDS011;3549;42.162;24.726;2023-05-29T12:17:43;5.28;;;3.55;;
7017;SDS011;3549;42.162;24.726;2023-05-29T12:20:13;5.60;;;3.70;;
7017;SDS011;3549;42.162;24.726;2023-05-29T12:22:40;4.28;;;3.65;;
7017;SDS011;3549;42.162;24.726;2023-05-29T12:25:07;4.30;;;3.30;;
7017;SDS011;3549;42.162;24.726;2023-05-29T12:27:35;7.82;;;3.53;;
7017;SDS011;3549;42.162;24.726;2023-05-29T12:30:09;4.93;;;3.30;;
7017;SDS011;3549;42.162;24.726;2023-05-29T12:32:42;4.53;;;3.88;;
7017;SDS011;3549;42.162;24.726;2023-05-29T12:35:11;7.35;;;3.80;;
7017;SDS011;3549;42.162;24.726;2023-05-29T12:37:48;4.22;;;3.70;;
7017;SDS011;3549;42.162;24.726;2023-05-29T12:40:18;4.70;;;3.40;;
7017;SDS011;3549;42.162;24.726;2023-05-29T12:42:46;5.32;;;3.97;;
7017;SDS011;3549;42.162;24.726;2023-05-29T12:45:18;6.20;;;4.40;;
7017;SDS011;3549;42.162;24.726;2023-05-29T12:47:44;6.03;;;4.10;;
7017;SDS011;3549;42.162;24.726;2023-05-29T12:50:21;5.75;;;4.40;;
7017;SDS011;3549;42.162;24.726;2023-05-29T12:52:54;6.45;;;4.60;;
7017;SDS011;3549;42.162;24.726;2023-05-29T12:55:20;5.53;;;4.22;;
7017;SDS011;3549;42.162;24.726;2023-05-29T12:57:45;6.82;;;4.50;;
7017;SDS011;3549;42.162;24.726;2023-05-29T13:00:11;5.72;;;4.28;;
7017;SDS011;3549;42.162;24.726;2023-05-29T13:02:38;10.13;;;4.80;;
7017;SDS011;3549;42.162;24.726;2023-05-29T13:05:03;7.28;;;4.45;;
7017;SDS011;3549;42.162;24.726;2023-05-29T13:07:30;5.55;;;4.43;;
7017;SDS011;3549;42.162;24.726;2023-05-29T13:09:56;6.03;;;4.57;;
7017;SDS011;3549;42.162;24.726;2023-05-29T13:12:21;6.72;;;4.32;;
7017;SDS011;3549;42.162;24.726;2023-05-29T13:14:46;7.30;;;4.53;;
7017;SDS011;3549;42.162;24.726;2023-05-29T13:17:12;8.32;;;4.18;;
7017;SDS011;3549;42.162;24.726;2023-05-29T13:19:37;5.18;;;4.05;;
7017;SDS011;3549;42.162;24.726;2023-05-29T13:22:03;5.03;;;4.13;;
7017;SDS011;3549;42.162;24.726;2023-05-29T13:24:28;6.57;;;4.07;;
7017;SDS011;3549;42.162;24.726;2023-05-29T13:26:53;7.35;;;3.70;;
7017;SDS011;3549;42.162;24.726;2023-05-29T13:29:19;5.45;;;3.97;;
7017;SDS011;3549;42.162;24.726;2023-05-29T13:31:45;6.80;;;4.40;;
7017;SDS011;3549;42.162;24.726;2023-05-29T13:34:11;4.57;;;3.83;;
7017;SDS011;3549;42.162;24.726;2023-05-29T13:36:36;7.45;;;4.38;;
7017;SDS011;3549;42.162;24.726;2023-05-29T13:39:02;5.85;;;4.03;;
7017;SDS011;3549;42.162;24.726;2023-05-29T13:41:29;4.47;;;3.60;;
7017;SDS011;3549;42.162;24.726;2023-05-29T13:43:54;5.30;;;4.40;;
7017;SDS011;3549;42.162;24.726;2023-05-29T13:46:19;4.65;;;3.08;;
7017;SDS011;3549;42.162;24.726;2023-05-29T13:48:45;5.25;;;3.30;;
7017;SDS011;3549;42.162;24.726;2023-05-29T13:51:10;4.20;;;3.15;;
7017;SDS011;3549;42.162;24.726;2023-05-29T13:53:35;4.93;;;3.30;;
7017;SDS011;3549;42.162;24.726;2023-05-29T13:56:01;3.75;;;3.25;;
7017;SDS011;3549;42.162;24.726;2023-05-29T13:58:26;3.72;;;3.30;;
7017;SDS011;3549;42.162;24.726;2023-05-29T14:00:52;3.40;;;3.10;;
7017;SDS011;3549;42.162;24.726;2023-05-29T14:03:17;3.65;;;3.20;;
7017;SDS011;3549;42.162;24.726;2023-05-29T14:05:46;4.13;;;2.97;;
7017;SDS011;3549;42.162;24.726;2023-05-29T14:08:11;6.40;;;3.53;;
7017;SDS011;3549;42.162;24.726;2023-05-29T14:10:37;5.80;;;3.50;;
7017;SDS011;3549;42.162;24.726;2023-05-29T14:13:02;7.82;;;4.40;;
7017;SDS011;3549;42.162;24.726;2023-05-29T14:15:28;9.38;;;5.00;;
7017;SDS011;3549;42.162;24.726;2023-05-29T14:17:53;11.43;;;5.60;;
7017;SDS011;3549;42.162;24.726;2023-05-29T14:20:18;8.35;;;5.30;;
7017;SDS011;3549;42.162;24.726;2023-05-29T14:22:44;7.75;;;5.38;;
7017;SDS011;3549;42.162;24.726;2023-05-29T14:25:09;15.07;;;6.15;;
7017;SDS011;3549;42.162;24.726;2023-05-29T14:27:35;9.45;;;5.88;;
7017;SDS011;3549;42.162;24.726;2023-05-29T14:30:01;8.70;;;5.82;;
7017;SDS011;3549;42.162;24.726;2023-05-29T14:32:27;9.32;;;5.95;;
7017;SDS011;3549;42.162;24.726;2023-05-29T14:34:53;10.25;;;5.78;;
7017;SDS011;3549;42.162;24.726;2023-05-29T14:37:18;8.05;;;5.47;;
7017;SDS011;3549;42.162;24.726;2023-05-29T14:39:44;11.57;;;6.43;;
7017;SDS011;3549;42.162;24.726;2023-05-29T14:42:09;8.90;;;6.70;;
7017;SDS011;3549;42.162;24.726;2023-05-29T14:44:34;10.00;;;6.67;;
7017;SDS011;3549;42.162;24.726;2023-05-29T14:47:00;10.63;;;6.73;;
7017;SDS011;3549;42.162;24.726;2023-05-29T14:49:26;11.37;;;7.17;;
7017;SDS011;3549;42.162;24.726;2023-05-29T14:51:54;10.77;;;7.07;;
7017;SDS011;3549;42.162;24.726;2023-05-29T14:54:20;11.30;;;6.97;;
7017;SDS011;3549;42.162;24.726;2023-05-29T14:56:45;10.53;;;6.80;;
7017;SDS011;3549;42.162;24.726;2023-05-29T14:59:10;11.77;;;7.27;;
7017;SDS011;3549;42.162;24.726;2023-05-29T15:01:59;12.87;;;7.93;;
7017;SDS011;3549;42.162;24.726;2023-05-29T15:04:26;11.93;;;7.53;;
7017;SDS011;3549;42.162;24.726;2023-05-29T15:06:51;10.10;;;7.10;;
7017;SDS011;3549;42.162;24.726;2023-05-29T15:09:18;9.77;;;7.00;;
7017;SDS011;3549;42.162;24.726;2023-05-29T15:11:44;11.20;;;7.33;;
7017;SDS011;3549;42.162;24.726;2023-05-29T15:14:10;12.87;;;7.67;;
7017;SDS011;3549;42.162;24.726;2023-05-29T15:16:35;13.50;;;8.03;;
7017;SDS011;3549;42.162;24.726;2023-05-29T15:19:01;12.23;;;8.30;;
7017;SDS011;3549;42.162;24.726;2023-05-29T15:21:27;14.73;;;8.47;;
7017;SDS011;3549;42.162;24.726;2023-05-29T15:23:52;11.73;;;8.13;;
7017;SDS011;3549;42.162;24.726;2023-05-29T15:26:17;12.90;;;7.73;;